sensor_id;sensor_type;location;lat;lon;timestamp;pressure;altitude;pressure_sealevel;temperature;humidity
59367;BME280;45163;47.690;11.770;2022-07-23T00:02:11;93548.28;;;19.53;100.00
59367;BME280;45163;47.690;11.770;2022-07-23T00:04:37;93549.25;;;19.50;100.00
59367;BME280;45163;47.690;11.770;2022-07-23T00:07:03;93533.41;;;19.50;100.00
59367;BME280;45163;47.690;11.770;2022-07-23T00:09:29;93536.94;;;19.51;100.00
59367;BME280;45163;47.690;11.770;2022-07-23T00:11:56;93525.81;;;19.45;100.00
59367;BME280;45163;47.690;11.770;2022-07-23T00:14:22;93526.28;;;19.44;100.00
59367;BME280;45163;47.690;11.770;2022-07-23T00:16:48;93512.59;;;19.34;100.00
59367;BME280;45163;47.690;11.770;2022-07-23T00:19:15;93511.03;;;19.28;100.00
59367;BME280;45163;47.690;11.770;2022-07-23T00:21:41;93518.03;;;19.23;100.00
59367;BME280;45163;47.690;11.770;2022-07-23T00:24:07;93527.06;;;19.24;100.00
59367;BME280;45163;47.690;11.770;2022-07-23T00:26:33;93526.31;;;19.23;100.00
59367;BME280;45163;47.690;11.770;2022-07-23T00:28:59;93532.81;;;19.20;100.00
59367;BME280;45163;47.690;11.770;2022-07-23T00:31:25;93523.47;;;19.17;100.00
59367;BME280;45163;47.690;11.770;2022-07-23T00:33:53;93510.19;;;19.22;100.00
59367;BME280;45163;47.690;11.770;2022-07-23T00:36:23;93515.81;;;19.27;100.00
59367;BME280;45163;47.690;11.770;2022-07-23T00:38:49;93526.88;;;19.27;100.00
59367;BME280;45163;47.690;11.770;2022-07-23T00:41:15;93519.75;;;19.21;100.00
59367;BME280;45163;47.690;11.770;2022-07-23T00:43:41;93523.66;;;19.14;100.00
59367;BME280;45163;47.690;11.770;2022-07-23T00:46:07;93519.13;;;19.11;100.00
59367;BME280;45163;47.690;11.770;2022-07-23T00:48:33;93508.97;;;19.02;100.00
59367;BME280;45163;47.690;11.770;2022-07-23T00:50:59;93502.72;;;19.07;100.00
59367;BME280;45163;47.690;11.770;2022-07-23T00:53:25;93481.16;;;19.11;100.00
59367;BME280;45163;47.690;11.770;2022-07-23T00:55:53;93487.28;;;19.01;100.00
59367;BME280;45163;47.690;11.770;2022-07-23T00:58:19;93496.09;;;18.99;100.00
59367;BME280;45163;47.690;11.770;2022-07-23T01:00:45;93512.34;;;18.91;100.00
59367;BME280;45163;47.690;11.770;2022-07-23T01:03:11;93525.34;;;18.85;100.00
59367;BME280;45163;47.690;11.770;2022-07-23T01:05:38;93528.38;;;18.87;100.00
59367;BME280;45163;47.690;11.770;2022-07-23T01:08:05;93536.84;;;18.99;100.00
59367;BME280;45163;47.690;11.770;2022-07-23T01:10:31;93523.25;;;19.21;100.00
59367;BME280;45163;47.690;11.770;2022-07-23T01:13:06;93534.19;;;19.30;100.00
59367;BME280;45163;47.690;11.770;2022-07-23T01:15:34;93538.75;;;19.33;100.00
59367;BME280;45163;47.690;11.770;2022-07-23T01:18:02;93549.56;;;19.31;100.00
59367;BME280;45163;47.690;11.770;2022-07-23T01:20:29;93558.19;;;19.19;100.00
59367;BME280;45163;47.690;11.770;2022-07-23T01:22:56;93558.31;;;19.09;100.00
59367;BME280;45163;47.690;11.770;2022-07-23T01:25:22;93567.19;;;19.13;100.00
59367;BME280;45163;47.690;11.770;2022-07-23T01:27:49;93558.47;;;19.00;100.00
59367;BME280;45163;47.690;11.770;2022-07-23T01:30:15;93572.22;;;18.95;100.00
59367;BME280;45163;47.690;11.770;2022-07-23T01:32:41;93608.88;;;18.89;100.00
59367;BME280;45163;47.690;11.770;2022-07-23T01:35:08;93625.00;;;18.91;100.00
59367;BME280;45163;47.690;11.770;2022-07-23T01:37:35;93626.13;;;18.99;100.00
59367;BME280;45163;47.690;11.770;2022-07-23T01:40:02;93645.66;;;19.10;100.00
59367;BME280;45163;47.690;11.770;2022-07-23T01:42:28;93637.09;;;19.49;100.00
59367;BME280;45163;47.690;11.770;2022-07-23T01:44:54;93645.91;;;20.14;100.00
59367;BME280;45163;47.690;11.770;2022-07-23T01:47:20;93656.31;;;20.46;100.00
59367;BME280;45163;47.690;11.770;2022-07-23T01:49:47;93662.25;;;20.59;100.00
59367;BME280;45163;47.690;11.770;2022-07-23T01:52:13;93674.84;;;20.54;100.00
59367;BME280;45163;47.690;11.770;2022-07-23T01:54:39;93677.09;;;20.56;100.00
59367;BME280;45163;47.690;11.770;2022-07-23T01:57:06;93685.72;;;20.58;100.00
59367;BME280;45163;47.690;11.770;2022-07-23T01:59:32;93691.34;;;20.69;100.00
59367;BME280;45163;47.690;11.770;2022-07-23T02:01:58;93684.09;;;20.77;100.00
59367;BME280;45163;47.690;11.770;2022-07-23T02:04:25;93687.25;;;20.64;100.00
59367;BME280;45163;47.690;11.770;2022-07-23T02:06:52;93696.84;;;20.63;100.00
59367;BME280;45163;47.690;11.770;2022-07-23T02:09:18;93686.03;;;20.66;100.00
59367;BME280;45163;47.690;11.770;2022-07-23T02:11:44;93690.03;;;20.64;100.00
59367;BME280;45163;47.690;11.770;2022-07-23T02:14:10;93691.81;;;20.62;100.00
59367;BME280;45163;47.690;11.770;2022-07-23T02:16:36;93687.56;;;20.67;100.00
59367;BME280;45163;47.690;11.770;2022-07-23T02:19:03;93682.94;;;20.58;100.00
59367;BME280;45163;47.690;11.770;2022-07-23T02:21:29;93682.41;;;20.54;100.00
59367;BME280;45163;47.690;11.770;2022-07-23T02:23:55;93679.53;;;20.48;100.00
59367;BME280;45163;47.690;11.770;2022-07-23T02:26:21;93676.44;;;20.40;100.00
59367;BME280;45163;47.690;11.770;2022-07-23T02:28:47;93673.38;;;20.38;100.00
59367;BME280;45163;47.690;11.770;2022-07-23T02:31:13;93675.63;;;20.34;100.00
59367;BME280;45163;47.690;11.770;2022-07-23T02:33:39;93661.19;;;20.30;100.00
59367;BME280;45163;47.690;11.770;2022-07-23T02:36:05;93659.84;;;20.20;100.00
59367;BME280;45163;47.690;11.770;2022-07-23T02:38:31;93658.59;;;20.21;100.00
59367;BME280;45163;47.690;11.770;2022-07-23T02:40:57;93648.22;;;20.16;100.00
59367;BME280;45163;47.690;11.770;2022-07-23T02:43:23;93651.97;;;20.13;100.00
59367;BME280;45163;47.690;11.770;2022-07-23T02:45:49;93640.13;;;20.12;100.00
59367;BME280;45163;47.690;11.770;2022-07-23T02:48:15;93642.84;;;20.07;100.00
59367;BME280;45163;47.690;11.770;2022-07-23T02:50:41;93640.19;;;19.98;100.00
59367;BME280;45163;47.690;11.770;2022-07-23T02:53:07;93632.59;;;19.93;100.00
59367;BME280;45163;47.690;11.770;2022-07-23T02:55:33;93640.56;;;19.85;100.00
59367;BME280;45163;47.690;11.770;2022-07-23T02:57:59;93641.00;;;19.78;100.00
59367;BME280;45163;47.690;11.770;2022-07-23T03:00:25;93638.72;;;19.76;100.00
59367;BME280;45163;47.690;11.770;2022-07-23T03:02:51;93647.31;;;19.78;100.00
59367;BME280;45163;47.690;11.770;2022-07-23T03:05:17;93657.63;;;19.78;100.00
59367;BME280;45163;47.690;11.770;2022-07-23T03:07:43;93661.91;;;19.79;100.00
59367;BME280;45163;47.690;11.770;2022-07-23T03:10:09;93670.72;;;19.77;100.00
59367;BME280;45163;47.690;11.770;2022-07-23T03:12:35;93679.16;;;19.68;100.00
59367;BME280;45163;47.690;11.770;2022-07-23T03:15:01;93681.84;;;19.62;100.00
59367;BME280;45163;47.690;11.770;2022-07-23T03:17:27;93682.38;;;19.46;100.00
59367;BME280;45163;47.690;11.770;2022-07-23T03:19:53;93683.00;;;19.35;100.00
59367;BME280;45163;47.690;11.770;2022-07-23T03:22:19;93680.13;;;19.30;100.00
59367;BME280;45163;47.690;11.770;2022-07-23T03:24:45;93688.34;;;19.24;100.00
59367;BME280;45163;47.690;11.770;2022-07-23T03:27:29;93698.28;;;19.16;100.00
59367;BME280;45163;47.690;11.770;2022-07-23T03:29:57;93701.94;;;19.07;100.00
59367;BME280;45163;47.690;11.770;2022-07-23T03:32:24;93705.84;;;19.01;100.00
59367;BME280;45163;47.690;11.770;2022-07-23T03:34:50;93711.13;;;18.99;100.00
59367;BME280;45163;47.690;11.770;2022-07-23T03:37:17;93709.97;;;18.90;100.00
59367;BME280;45163;47.690;11.770;2022-07-23T03:39:44;93700.91;;;18.75;100.00
59367;BME280;45163;47.690;11.770;2022-07-23T03:42:10;93708.34;;;18.69;100.00
59367;BME280;45163;47.690;11.770;2022-07-23T03:44:37;93709.09;;;18.55;100.00
59367;BME280;45163;47.690;11.770;2022-07-23T03:47:04;93710.53;;;18.35;100.00
59367;BME280;45163;47.690;11.770;2022-07-23T03:49:31;93722.44;;;18.27;100.00
59367;BME280;45163;47.690;11.770;2022-07-23T03:51:58;93717.94;;;18.14;100.00
59367;BME280;45163;47.690;11.770;2022-07-23T03:54:24;93727.06;;;18.06;100.00
59367;BME280;45163;47.690;11.770;2022-07-23T03:56:50;93738.91;;;17.97;100.00
59367;BME280;45163;47.690;11.770;2022-07-23T03:59:16;93738.97;;;17.88;100.00
59367;BME280;45163;47.690;11.770;2022-07-23T04:01:42;93734.88;;;17.83;100.00
59367;BME280;45163;47.690;11.770;2022-07-23T04:04:08;93742.69;;;17.85;100.00
59367;BME280;45163;47.690;11.770;2022-07-23T04:06:35;93737.53;;;17.78;100.00
59367;BME280;45163;47.690;11.770;2022-07-23T04:09:01;93739.38;;;17.72;100.00
59367;BME280;45163;47.690;11.770;2022-07-23T04:11:27;93731.47;;;17.64;100.00
59367;BME280;45163;47.690;11.770;2022-07-23T04:13:53;93721.84;;;17.51;100.00
59367;BME280;45163;47.690;11.770;2022-07-23T04:16:19;93686.16;;;17.47;100.00
59367;BME280;45163;47.690;11.770;2022-07-23T04:18:45;93646.66;;;17.41;100.00
59367;BME280;45163;47.690;11.770;2022-07-23T04:21:11;93597.50;;;17.30;100.00
59367;BME280;45163;47.690;11.770;2022-07-23T04:23:37;93555.41;;;17.06;100.00
59367;BME280;45163;47.690;11.770;2022-07-23T04:26:03;93545.75;;;17.01;100.00
59367;BME280;45163;47.690;11.770;2022-07-23T04:28:29;93542.78;;;16.90;100.00
59367;BME280;45163;47.690;11.770;2022-07-23T04:30:58;93557.38;;;16.81;100.00
59367;BME280;45163;47.690;11.770;2022-07-23T04:33:24;93558.16;;;16.82;100.00
59367;BME280;45163;47.690;11.770;2022-07-23T04:35:51;93542.44;;;16.97;100.00
59367;BME280;45163;47.690;11.770;2022-07-23T04:38:16;93552.22;;;16.98;100.00
59367;BME280;45163;47.690;11.770;2022-07-23T04:40:42;93527.28;;;16.92;100.00
59367;BME280;45163;47.690;11.770;2022-07-23T04:43:08;93532.03;;;16.92;100.00
59367;BME280;45163;47.690;11.770;2022-07-23T04:45:34;93518.41;;;16.88;100.00
59367;BME280;45163;47.690;11.770;2022-07-23T04:48:00;93522.81;;;16.95;100.00
59367;BME280;45163;47.690;11.770;2022-07-23T04:50:27;93518.38;;;16.98;100.00
59367;BME280;45163;47.690;11.770;2022-07-23T04:52:53;93512.78;;;17.07;100.00
59367;BME280;45163;47.690;11.770;2022-07-23T04:55:20;93513.38;;;17.11;100.00
59367;BME280;45163;47.690;11.770;2022-07-23T04:57:46;93478.94;;;17.21;100.00
59367;BME280;45163;47.690;11.770;2022-07-23T05:00:12;93464.63;;;17.32;100.00
59367;BME280;45163;47.690;11.770;2022-07-23T05:02:38;93464.03;;;17.28;100.00
59367;BME280;45163;47.690;11.770;2022-07-23T05:05:04;93455.09;;;17.33;100.00
59367;BME280;45163;47.690;11.770;2022-07-23T05:07:30;93457.66;;;17.36;100.00
59367;BME280;45163;47.690;11.770;2022-07-23T05:09:56;93460.91;;;17.35;100.00
59367;BME280;45163;47.690;11.770;2022-07-23T05:12:22;93463.59;;;17.44;100.00
59367;BME280;45163;47.690;11.770;2022-07-23T05:14:48;93467.31;;;17.56;100.00
59367;BME280;45163;47.690;11.770;2022-07-23T05:17:14;93465.13;;;17.60;100.00
59367;BME280;45163;47.690;11.770;2022-07-23T05:19:40;93466.44;;;17.64;100.00
59367;BME280;45163;47.690;11.770;2022-07-23T05:22:06;93456.16;;;17.80;100.00
59367;BME280;45163;47.690;11.770;2022-07-23T05:24:32;93470.34;;;17.87;100.00
59367;BME280;45163;47.690;11.770;2022-07-23T05:26:58;93463.09;;;18.05;100.00
59367;BME280;45163;47.690;11.770;2022-07-23T05:29:24;93458.19;;;18.29;100.00
59367;BME280;45163;47.690;11.770;2022-07-23T05:31:50;93479.00;;;18.45;100.00
59367;BME280;45163;47.690;11.770;2022-07-23T05:34:16;93471.78;;;18.48;100.00
59367;BME280;45163;47.690;11.770;2022-07-23T05:36:42;93474.09;;;18.55;100.00
59367;BME280;45163;47.690;11.770;2022-07-23T05:39:08;93485.72;;;18.59;100.00
59367;BME280;45163;47.690;11.770;2022-07-23T05:41:34;93500.81;;;18.58;100.00
59367;BME280;45163;47.690;11.770;2022-07-23T05:44:00;93502.31;;;18.59;100.00
59367;BME280;45163;47.690;11.770;2022-07-23T05:46:26;93525.38;;;18.56;100.00
59367;BME280;45163;47.690;11.770;2022-07-23T05:48:52;93526.81;;;18.51;100.00
59367;BME280;45163;47.690;11.770;2022-07-23T05:51:22;93533.81;;;18.47;100.00
59367;BME280;45163;47.690;11.770;2022-07-23T05:53:49;93539.06;;;18.45;100.00
59367;BME280;45163;47.690;11.770;2022-07-23T05:56:16;93523.91;;;18.40;100.00
59367;BME280;45163;47.690;11.770;2022-07-23T05:58:42;93528.19;;;18.41;100.00
59367;BME280;45163;47.690;11.770;2022-07-23T06:01:08;93527.72;;;18.42;100.00
59367;BME280;45163;47.690;11.770;2022-07-23T06:03:35;93529.91;;;18.38;100.00
59367;BME280;45163;47.690;11.770;2022-07-23T06:06:01;93524.88;;;18.37;100.00
59367;BME280;45163;47.690;11.770;2022-07-23T06:08:27;93526.19;;;18.41;100.00
59367;BME280;45163;47.690;11.770;2022-07-23T06:10:53;93519.66;;;18.59;100.00
59367;BME280;45163;47.690;11.770;2022-07-23T06:13:19;93520.78;;;18.67;100.00
59367;BME280;45163;47.690;11.770;2022-07-23T09:19:37;93626.16;;;24.48;99.52
59367;BME280;45163;47.690;11.770;2022-07-23T09:22:26;93627.00;;;24.31;98.10
59367;BME280;45163;47.690;11.770;2022-07-23T09:25:10;93631.69;;;24.12;100.00
59367;BME280;45163;47.690;11.770;2022-07-23T09:27:47;93623.88;;;24.05;100.00
59367;BME280;45163;47.690;11.770;2022-07-23T09:30:14;93630.44;;;24.07;99.52
59367;BME280;45163;47.690;11.770;2022-07-23T09:32:40;93626.34;;;24.14;97.12
59367;BME280;45163;47.690;11.770;2022-07-23T09:35:06;93619.47;;;24.15;96.92
59367;BME280;45163;47.690;11.770;2022-07-23T09:37:36;93634.09;;;24.32;99.11
59367;BME280;45163;47.690;11.770;2022-07-23T09:40:08;93627.63;;;24.90;97.43
59367;BME280;45163;47.690;11.770;2022-07-23T09:42:35;93619.34;;;26.07;90.54
59367;BME280;45163;47.690;11.770;2022-07-23T09:45:01;93616.56;;;26.64;85.51
59367;BME280;45163;47.690;11.770;2022-07-23T09:47:30;93617.22;;;27.34;79.85
59367;BME280;45163;47.690;11.770;2022-07-23T09:50:07;93617.72;;;27.00;77.31
59367;BME280;45163;47.690;11.770;2022-07-23T09:52:47;93614.28;;;26.62;81.17
59367;BME280;45163;47.690;11.770;2022-07-23T09:55:15;93619.41;;;26.20;83.36
59367;BME280;45163;47.690;11.770;2022-07-23T09:57:41;93616.59;;;25.82;83.76
59367;BME280;45163;47.690;11.770;2022-07-23T10:00:11;93619.22;;;25.26;90.31
59367;BME280;45163;47.690;11.770;2022-07-23T10:02:38;93608.75;;;25.02;92.37
59367;BME280;45163;47.690;11.770;2022-07-23T10:05:05;93609.84;;;24.63;93.28
59367;BME280;45163;47.690;11.770;2022-07-23T10:07:34;93604.06;;;24.85;96.00
59367;BME280;45163;47.690;11.770;2022-07-23T10:10:02;93597.91;;;24.93;95.35
59367;BME280;45163;47.690;11.770;2022-07-23T10:12:28;93601.94;;;25.52;93.52
59367;BME280;45163;47.690;11.770;2022-07-23T10:15:01;93597.41;;;26.68;89.24
59367;BME280;45163;47.690;11.770;2022-07-23T10:17:28;93602.97;;;27.32;82.38
59367;BME280;45163;47.690;11.770;2022-07-23T10:19:55;93599.31;;;27.50;79.85
59367;BME280;45163;47.690;11.770;2022-07-23T10:22:24;93595.78;;;27.63;77.93
59367;BME280;45163;47.690;11.770;2022-07-23T10:27:26;93590.31;;;28.66;74.56
59367;BME280;45163;47.690;11.770;2022-07-23T10:35:47;93591.16;;;28.95;66.31
59367;BME280;45163;47.690;11.770;2022-07-23T10:38:37;93578.38;;;29.36;64.70
59367;BME280;45163;47.690;11.770;2022-07-23T10:41:08;93565.53;;;29.48;51.88
59367;BME280;45163;47.690;11.770;2022-07-23T10:43:34;93557.69;;;30.19;47.02
59367;BME280;45163;47.690;11.770;2022-07-23T10:46:25;93561.03;;;30.69;40.44
59367;BME280;45163;47.690;11.770;2022-07-23T10:49:31;93564.56;;;30.10;43.50
59367;BME280;45163;47.690;11.770;2022-07-23T10:52:21;93565.28;;;30.03;42.38
59367;BME280;45163;47.690;11.770;2022-07-23T10:54:50;93561.19;;;29.47;42.34
59367;BME280;45163;47.690;11.770;2022-07-23T10:57:21;93560.25;;;29.44;43.95
59367;BME280;45163;47.690;11.770;2022-07-23T11:02:29;93571.25;;;28.51;47.21
59367;BME280;45163;47.690;11.770;2022-07-23T11:05:06;93578.72;;;28.35;47.78
59367;BME280;45163;47.690;11.770;2022-07-23T11:08:09;93581.94;;;27.92;48.25
59367;BME280;45163;47.690;11.770;2022-07-23T11:10:43;93578.94;;;27.63;50.45
59367;BME280;45163;47.690;11.770;2022-07-23T11:34:47;93562.59;;;28.15;47.26
59367;BME280;45163;47.690;11.770;2022-07-23T11:37:31;93565.25;;;27.60;49.49
59367;BME280;45163;47.690;11.770;2022-07-23T11:39:58;93572.25;;;27.26;50.98
59367;BME280;45163;47.690;11.770;2022-07-23T11:42:24;93559.69;;;26.69;52.64
59367;BME280;45163;47.690;11.770;2022-07-23T11:44:51;93567.91;;;26.48;54.04
59367;BME280;45163;47.690;11.770;2022-07-23T11:47:22;93568.91;;;26.50;55.45
59367;BME280;45163;47.690;11.770;2022-07-23T11:49:57;93568.97;;;26.45;55.80
59367;BME280;45163;47.690;11.770;2022-07-23T11:52:25;93564.31;;;26.66;58.21
59367;BME280;45163;47.690;11.770;2022-07-23T11:54:59;93555.84;;;26.72;56.55
59367;BME280;45163;47.690;11.770;2022-07-23T11:57:31;93553.47;;;27.21;56.47
59367;BME280;45163;47.690;11.770;2022-07-23T12:00:02;93551.31;;;27.27;54.89
59367;BME280;45163;47.690;11.770;2022-07-23T12:02:29;93549.19;;;27.47;55.37
59367;BME280;45163;47.690;11.770;2022-07-23T12:04:58;93550.03;;;27.82;53.47
59367;BME280;45163;47.690;11.770;2022-07-23T12:09:56;93563.59;;;27.91;54.11
59367;BME280;45163;47.690;11.770;2022-07-23T12:12:22;93560.16;;;27.58;55.98
59367;BME280;45163;47.690;11.770;2022-07-23T12:14:58;93555.66;;;27.55;53.96
59367;BME280;45163;47.690;11.770;2022-07-23T12:17:35;93550.91;;;27.76;54.04
59367;BME280;45163;47.690;11.770;2022-07-23T12:20:04;93551.97;;;27.73;51.59
59367;BME280;45163;47.690;11.770;2022-07-23T12:22:36;93543.88;;;27.83;52.89
59367;BME280;45163;47.690;11.770;2022-07-23T12:25:14;93540.81;;;28.42;50.97
59367;BME280;45163;47.690;11.770;2022-07-23T12:27:41;93545.56;;;28.47;51.12
59367;BME280;45163;47.690;11.770;2022-07-23T12:30:31;93529.53;;;28.97;49.78
59367;BME280;45163;47.690;11.770;2022-07-23T12:32:58;93536.28;;;29.80;45.75
59367;BME280;45163;47.690;11.770;2022-07-23T12:35:32;93530.25;;;30.79;42.54
59367;BME280;45163;47.690;11.770;2022-07-23T12:38:03;93537.16;;;31.69;39.88
59367;BME280;45163;47.690;11.770;2022-07-23T12:40:45;93534.16;;;31.60;40.30
59367;BME280;45163;47.690;11.770;2022-07-23T12:43:20;93528.56;;;31.44;41.27
59367;BME280;45163;47.690;11.770;2022-07-23T12:46:15;93522.50;;;31.56;40.73
59367;BME280;45163;47.690;11.770;2022-07-23T12:53:49;93527.91;;;30.54;44.13
59367;BME280;45163;47.690;11.770;2022-07-23T12:56:34;93526.63;;;29.31;46.00
59367;BME280;45163;47.690;11.770;2022-07-23T13:04:08;93535.28;;;28.70;51.39
59367;BME280;45163;47.690;11.770;2022-07-23T13:06:46;93526.16;;;29.84;47.00
59367;BME280;45163;47.690;11.770;2022-07-23T13:09:15;93531.59;;;30.18;44.18
59367;BME280;45163;47.690;11.770;2022-07-23T13:11:42;93524.78;;;30.96;43.24
59367;BME280;45163;47.690;11.770;2022-07-23T13:14:09;93531.50;;;30.70;42.34
59367;BME280;45163;47.690;11.770;2022-07-23T13:16:35;93535.78;;;30.40;43.01
59367;BME280;45163;47.690;11.770;2022-07-23T13:19:01;93526.13;;;31.03;42.97
59367;BME280;45163;47.690;11.770;2022-07-23T13:21:29;93536.25;;;31.13;40.36
59367;BME280;45163;47.690;11.770;2022-07-23T13:23:56;93534.38;;;31.46;39.65
59367;BME280;45163;47.690;11.770;2022-07-23T13:26:22;93535.16;;;31.32;40.09
59367;BME280;45163;47.690;11.770;2022-07-23T13:28:48;93541.88;;;31.13;40.03
59367;BME280;45163;47.690;11.770;2022-07-23T13:31:16;93542.97;;;30.72;42.46
59367;BME280;45163;47.690;11.770;2022-07-23T13:33:42;93543.56;;;30.11;43.25
59367;BME280;45163;47.690;11.770;2022-07-23T13:36:08;93539.91;;;30.47;42.96
59367;BME280;45163;47.690;11.770;2022-07-23T13:38:34;93540.88;;;30.06;43.89
59367;BME280;45163;47.690;11.770;2022-07-23T13:41:00;93548.66;;;29.48;44.42
59367;BME280;45163;47.690;11.770;2022-07-23T13:43:29;93544.72;;;29.51;44.48
59367;BME280;45163;47.690;11.770;2022-07-23T13:45:55;93543.88;;;29.07;46.42
59367;BME280;45163;47.690;11.770;2022-07-23T13:48:21;93539.81;;;29.72;45.62
59367;BME280;45163;47.690;11.770;2022-07-23T13:50:49;93549.69;;;29.94;44.50
59367;BME280;45163;47.690;11.770;2022-07-23T13:53:21;93543.97;;;29.22;47.45
59367;BME280;45163;47.690;11.770;2022-07-23T13:55:49;93546.09;;;29.29;47.74
59367;BME280;45163;47.690;11.770;2022-07-23T13:58:16;93535.53;;;30.15;45.73
59367;BME280;45163;47.690;11.770;2022-07-23T14:00:48;93526.97;;;30.59;44.17
59367;BME280;45163;47.690;11.770;2022-07-23T14:03:16;93533.63;;;30.92;42.86
59367;BME280;45163;47.690;11.770;2022-07-23T14:05:42;93528.50;;;30.52;41.66
59367;BME280;45163;47.690;11.770;2022-07-23T14:08:08;93534.50;;;30.72;42.57
59367;BME280;45163;47.690;11.770;2022-07-23T14:10:34;93532.25;;;30.47;42.57
59367;BME280;45163;47.690;11.770;2022-07-23T14:13:00;93534.28;;;29.95;43.42
59367;BME280;45163;47.690;11.770;2022-07-23T14:15:29;93536.78;;;29.42;44.95
59367;BME280;45163;47.690;11.770;2022-07-23T14:17:56;93538.31;;;28.93;47.59
59367;BME280;45163;47.690;11.770;2022-07-23T14:20:22;93540.47;;;29.29;48.83
59367;BME280;45163;47.690;11.770;2022-07-23T14:22:49;93545.75;;;29.33;51.02
59367;BME280;45163;47.690;11.770;2022-07-23T14:25:16;93539.88;;;28.60;54.07
59367;BME280;45163;47.690;11.770;2022-07-23T14:27:42;93540.09;;;28.28;57.31
59367;BME280;45163;47.690;11.770;2022-07-23T14:30:09;93541.19;;;27.51;60.25
59367;BME280;45163;47.690;11.770;2022-07-23T14:32:36;93547.34;;;27.76;62.14
59367;BME280;45163;47.690;11.770;2022-07-23T14:35:03;93544.72;;;28.25;61.56
59367;BME280;45163;47.690;11.770;2022-07-23T14:37:29;93544.81;;;28.33;61.81
59367;BME280;45163;47.690;11.770;2022-07-23T14:39:55;93545.03;;;28.35;59.70
59367;BME280;45163;47.690;11.770;2022-07-23T14:42:22;93535.88;;;27.87;62.31
59367;BME280;45163;47.690;11.770;2022-07-23T14:44:47;93533.16;;;27.95;60.21
59367;BME280;45163;47.690;11.770;2022-07-23T14:47:13;93528.22;;;27.61;60.21
59367;BME280;45163;47.690;11.770;2022-07-23T14:49:39;93532.22;;;27.52;61.55
59367;BME280;45163;47.690;11.770;2022-07-23T14:52:06;93527.44;;;27.07;64.10
59367;BME280;45163;47.690;11.770;2022-07-23T14:54:33;93521.09;;;27.07;64.78
59367;BME280;45163;47.690;11.770;2022-07-23T14:57:00;93529.69;;;26.96;62.77
59367;BME280;45163;47.690;11.770;2022-07-23T14:59:27;93532.25;;;26.67;65.42
59367;BME280;45163;47.690;11.770;2022-07-23T15:01:53;93542.19;;;26.30;68.10
59367;BME280;45163;47.690;11.770;2022-07-23T15:04:19;93539.38;;;25.79;73.75
59367;BME280;45163;47.690;11.770;2022-07-23T15:06:46;93537.97;;;25.67;77.67
59367;BME280;45163;47.690;11.770;2022-07-23T15:09:12;93544.50;;;25.51;98.93
59367;BME280;45163;47.690;11.770;2022-07-23T15:11:40;93551.19;;;24.93;100.00
59367;BME280;45163;47.690;11.770;2022-07-23T15:14:07;93560.75;;;24.43;100.00
59367;BME280;45163;47.690;11.770;2022-07-23T15:16:34;93564.28;;;24.02;100.00
59367;BME280;45163;47.690;11.770;2022-07-23T15:19:01;93562.25;;;24.03;100.00
59367;BME280;45163;47.690;11.770;2022-07-23T15:21:28;93565.13;;;23.86;100.00
59367;BME280;45163;47.690;11.770;2022-07-23T15:23:56;93558.31;;;23.81;100.00
59367;BME280;45163;47.690;11.770;2022-07-23T15:26:28;93562.75;;;24.07;100.00
59367;BME280;45163;47.690;11.770;2022-07-23T15:28:55;93555.22;;;23.96;100.00
59367;BME280;45163;47.690;11.770;2022-07-23T15:31:21;93557.31;;;24.26;100.00
59367;BME280;45163;47.690;11.770;2022-07-23T15:33:47;93554.44;;;24.37;100.00
59367;BME280;45163;47.690;11.770;2022-07-23T15:36:13;93560.56;;;24.30;100.00
59367;BME280;45163;47.690;11.770;2022-07-23T15:38:39;93547.66;;;24.27;100.00
59367;BME280;45163;47.690;11.770;2022-07-23T15:41:05;93556.09;;;24.16;100.00
59367;BME280;45163;47.690;11.770;2022-07-23T15:43:31;93561.22;;;24.06;100.00
59367;BME280;45163;47.690;11.770;2022-07-23T15:45:57;93571.69;;;23.94;100.00
59367;BME280;45163;47.690;11.770;2022-07-23T15:48:23;93573.00;;;23.88;100.00
59367;BME280;45163;47.690;11.770;2022-07-23T15:50:50;93567.44;;;23.82;100.00
59367;BME280;45163;47.690;11.770;2022-07-23T15:53:16;93564.56;;;23.99;100.00
59367;BME280;45163;47.690;11.770;2022-07-23T15:55:43;93552.97;;;23.89;100.00
59367;BME280;45163;47.690;11.770;2022-07-23T15:58:10;93552.47;;;23.85;96.52
59367;BME280;45163;47.690;11.770;2022-07-23T16:00:36;93558.06;;;23.85;96.71
59367;BME280;45163;47.690;11.770;2022-07-23T16:03:02;93559.34;;;23.84;98.42
59367;BME280;45163;47.690;11.770;2022-07-23T16:05:28;93566.69;;;23.87;96.15
59367;BME280;45163;47.690;11.770;2022-07-23T16:08:04;93558.97;;;24.04;96.27
59367;BME280;45163;47.690;11.770;2022-07-23T16:10:30;93560.91;;;24.21;96.35
59367;BME280;45163;47.690;11.770;2022-07-23T16:12:56;93560.31;;;24.28;93.75
59367;BME280;45163;47.690;11.770;2022-07-23T16:15:23;93557.44;;;24.45;90.43
59367;BME280;45163;47.690;11.770;2022-07-23T16:17:49;93567.38;;;24.70;92.03
59367;BME280;45163;47.690;11.770;2022-07-23T16:20:16;93561.38;;;24.91;88.75
59367;BME280;45163;47.690;11.770;2022-07-23T16:22:42;93553.69;;;24.97;87.27
59367;BME280;45163;47.690;11.770;2022-07-23T16:25:09;93552.22;;;25.20;84.88
59367;BME280;45163;47.690;11.770;2022-07-23T16:27:37;93556.00;;;25.47;100.00
59367;BME280;45163;47.690;11.770;2022-07-23T16:30:04;93553.41;;;25.49;96.28
59367;BME280;45163;47.690;11.770;2022-07-23T16:32:30;93549.88;;;25.49;99.58
59367;BME280;45163;47.690;11.770;2022-07-23T16:34:56;93553.22;;;25.23;97.07
59367;BME280;45163;47.690;11.770;2022-07-23T16:37:22;93554.22;;;25.25;96.66
59367;BME280;45163;47.690;11.770;2022-07-23T16:39:48;93556.06;;;25.17;90.78